KFRG/FRG METAR and TAF weather

Enter ICAO airport designator
Station Type Date Time Source
KFRG METAR 2019/05/27 08:53 UTC NOAA

KFRG 270853Z AUTO 35009KT 10SM CLR 19/13 A2988 RMK AO2 SLP117 T01890133 53007


Station Type Date Time Source
KFRG Decoded METAR 2019/05/27 08:53 UTC NOAA

FARMINGDALE REPUBLIC AIRPORT , NY, United States (KFRG) 40-44N 073-25W 21M
May 27, 2019 - 04:53 AM EDT / 2019.05.27 0853 UTC
Wind: from the N (350 degrees) at 10 MPH (9 KT):0
Visibility: 10 mile(s):0
Sky conditions: clear
Temperature: 66.0 F (18.9 C)
Dew Point: 55.9 F (13.3 C)
Relative Humidity: 69%
Pressure (altimeter): 29.88 in. Hg (1011 hPa)
Pressure tendency: 0.02 inches (0.7 hPa) higher than three hours ago
ob: KFRG 270853Z AUTO 35009KT 10SM CLR 19/13 A2988 RMK AO2 SLP117 T01890133 53007
cycle: 9

Station Type Date Time Source
KFRG TAF UTC NOAA

Error!

Example: see airport list